sensor_id;sensor_type;location;lat;lon;timestamp;P1;durP1;ratioP1;P2;durP2;ratioP2
8626;SDS011;4351;51.422;6.794;2022-09-06T00:02:38;4.87;;;3.23;;
8626;SDS011;4351;51.422;6.794;2022-09-06T00:05:17;5.70;;;3.03;;
8626;SDS011;4351;51.422;6.794;2022-09-06T00:07:49;9.20;;;4.03;;
8626;SDS011;4351;51.422;6.794;2022-09-06T00:10:23;10.30;;;4.07;;
8626;SDS011;4351;51.422;6.794;2022-09-06T00:12:59;6.43;;;3.87;;
8626;SDS011;4351;51.422;6.794;2022-09-06T00:18:37;6.77;;;3.60;;
8626;SDS011;4351;51.422;6.794;2022-09-06T00:21:16;9.47;;;4.37;;
8626;SDS011;4351;51.422;6.794;2022-09-06T00:24:44;9.43;;;4.10;;
8626;SDS011;4351;51.422;6.794;2022-09-06T00:27:12;10.13;;;4.53;;
8626;SDS011;4351;51.422;6.794;2022-09-06T00:29:49;10.53;;;4.07;;
8626;SDS011;4351;51.422;6.794;2022-09-06T00:32:19;10.87;;;4.20;;
8626;SDS011;4351;51.422;6.794;2022-09-06T00:34:46;8.43;;;4.17;;
8626;SDS011;4351;51.422;6.794;2022-09-06T00:37:14;6.63;;;3.73;;
8626;SDS011;4351;51.422;6.794;2022-09-06T00:39:43;6.13;;;3.37;;
8626;SDS011;4351;51.422;6.794;2022-09-06T00:42:11;7.70;;;3.43;;
8626;SDS011;4351;51.422;6.794;2022-09-06T00:44:47;7.17;;;3.63;;
8626;SDS011;4351;51.422;6.794;2022-09-06T00:47:16;5.90;;;3.30;;
8626;SDS011;4351;51.422;6.794;2022-09-06T00:49:49;4.70;;;3.07;;
8626;SDS011;4351;51.422;6.794;2022-09-06T00:52:21;5.20;;;3.20;;
8626;SDS011;4351;51.422;6.794;2022-09-06T00:54:50;4.80;;;2.63;;
8626;SDS011;4351;51.422;6.794;2022-09-06T00:57:19;5.27;;;2.80;;
8626;SDS011;4351;51.422;6.794;2022-09-06T00:59:55;6.50;;;3.23;;
8626;SDS011;4351;51.422;6.794;2022-09-06T01:02:24;6.50;;;2.80;;
8626;SDS011;4351;51.422;6.794;2022-09-06T01:04:53;5.70;;;2.80;;
8626;SDS011;4351;51.422;6.794;2022-09-06T01:07:25;5.80;;;3.00;;
8626;SDS011;4351;51.422;6.794;2022-09-06T01:10:04;8.93;;;2.80;;
8626;SDS011;4351;51.422;6.794;2022-09-06T01:12:45;4.23;;;2.83;;
8626;SDS011;4351;51.422;6.794;2022-09-06T01:15:25;6.13;;;3.30;;
8626;SDS011;4351;51.422;6.794;2022-09-06T01:18:06;5.03;;;2.90;;
8626;SDS011;4351;51.422;6.794;2022-09-06T01:21:01;4.03;;;2.60;;
8626;SDS011;4351;51.422;6.794;2022-09-06T01:33:05;3.30;;;2.53;;
8626;SDS011;4351;51.422;6.794;2022-09-06T01:35:42;4.13;;;2.70;;
8626;SDS011;4351;51.422;6.794;2022-09-06T01:38:14;3.73;;;2.83;;
8626;SDS011;4351;51.422;6.794;2022-09-06T01:40:43;3.93;;;2.40;;
8626;SDS011;4351;51.422;6.794;2022-09-06T01:43:13;4.00;;;2.80;;
8626;SDS011;4351;51.422;6.794;2022-09-06T01:45:49;6.20;;;2.87;;
8626;SDS011;4351;51.422;6.794;2022-09-06T01:48:31;6.50;;;2.87;;
8626;SDS011;4351;51.422;6.794;2022-09-06T01:51:10;8.97;;;3.50;;
8626;SDS011;4351;51.422;6.794;2022-09-06T01:53:51;4.73;;;3.00;;
8626;SDS011;4351;51.422;6.794;2022-09-06T01:56:30;7.53;;;4.00;;
8626;SDS011;4351;51.422;6.794;2022-09-06T02:02:01;7.53;;;3.90;;
8626;SDS011;4351;51.422;6.794;2022-09-06T02:04:35;10.97;;;4.33;;
8626;SDS011;4351;51.422;6.794;2022-09-06T02:07:12;6.73;;;4.10;;
8626;SDS011;4351;51.422;6.794;2022-09-06T02:09:45;10.30;;;4.67;;
8626;SDS011;4351;51.422;6.794;2022-09-06T02:12:18;10.10;;;4.33;;
8626;SDS011;4351;51.422;6.794;2022-09-06T02:14:54;5.93;;;3.90;;
8626;SDS011;4351;51.422;6.794;2022-09-06T02:17:25;11.50;;;4.97;;
8626;SDS011;4351;51.422;6.794;2022-09-06T02:19:58;9.87;;;4.30;;
8626;SDS011;4351;51.422;6.794;2022-09-06T02:22:29;11.47;;;5.07;;
8626;SDS011;4351;51.422;6.794;2022-09-06T02:24:59;6.93;;;3.97;;
8626;SDS011;4351;51.422;6.794;2022-09-06T02:27:29;7.97;;;4.77;;
8626;SDS011;4351;51.422;6.794;2022-09-06T02:30:00;6.00;;;4.03;;
8626;SDS011;4351;51.422;6.794;2022-09-06T02:32:29;7.27;;;4.07;;
8626;SDS011;4351;51.422;6.794;2022-09-06T02:35:04;8.30;;;3.70;;
8626;SDS011;4351;51.422;6.794;2022-09-06T02:37:35;6.77;;;3.80;;
8626;SDS011;4351;51.422;6.794;2022-09-06T02:40:04;6.90;;;4.00;;
8626;SDS011;4351;51.422;6.794;2022-09-06T02:42:33;5.67;;;3.40;;
8626;SDS011;4351;51.422;6.794;2022-09-06T02:45:03;7.40;;;4.00;;
8626;SDS011;4351;51.422;6.794;2022-09-06T02:47:31;6.27;;;3.70;;
8626;SDS011;4351;51.422;6.794;2022-09-06T02:49:59;5.73;;;3.33;;
8626;SDS011;4351;51.422;6.794;2022-09-06T02:52:27;7.07;;;3.90;;
8626;SDS011;4351;51.422;6.794;2022-09-06T02:54:55;8.13;;;4.00;;
8626;SDS011;4351;51.422;6.794;2022-09-06T02:57:23;7.60;;;4.70;;
8626;SDS011;4351;51.422;6.794;2022-09-06T02:59:51;7.47;;;4.23;;
8626;SDS011;4351;51.422;6.794;2022-09-06T03:02:20;8.73;;;4.50;;
8626;SDS011;4351;51.422;6.794;2022-09-06T03:04:48;8.77;;;4.03;;
8626;SDS011;4351;51.422;6.794;2022-09-06T03:07:19;6.90;;;4.53;;
8626;SDS011;4351;51.422;6.794;2022-09-06T03:09:47;8.77;;;4.70;;
8626;SDS011;4351;51.422;6.794;2022-09-06T03:12:15;7.57;;;4.40;;
8626;SDS011;4351;51.422;6.794;2022-09-06T03:14:49;7.83;;;4.03;;
8626;SDS011;4351;51.422;6.794;2022-09-06T03:17:21;6.53;;;4.20;;
8626;SDS011;4351;51.422;6.794;2022-09-06T03:19:50;9.20;;;4.33;;
8626;SDS011;4351;51.422;6.794;2022-09-06T03:22:26;6.63;;;4.03;;
8626;SDS011;4351;51.422;6.794;2022-09-06T03:24:53;5.80;;;4.10;;
8626;SDS011;4351;51.422;6.794;2022-09-06T03:27:22;6.00;;;3.93;;
8626;SDS011;4351;51.422;6.794;2022-09-06T03:29:50;7.83;;;3.77;;
8626;SDS011;4351;51.422;6.794;2022-09-06T03:32:18;9.50;;;4.17;;
8626;SDS011;4351;51.422;6.794;2022-09-06T03:34:47;6.53;;;4.63;;
8626;SDS011;4351;51.422;6.794;2022-09-06T03:37:15;5.43;;;3.70;;
8626;SDS011;4351;51.422;6.794;2022-09-06T03:39:47;7.87;;;4.23;;
8626;SDS011;4351;51.422;6.794;2022-09-06T03:42:18;6.97;;;3.53;;
8626;SDS011;4351;51.422;6.794;2022-09-06T03:44:47;6.00;;;4.20;;
8626;SDS011;4351;51.422;6.794;2022-09-06T03:47:15;6.47;;;3.70;;
8626;SDS011;4351;51.422;6.794;2022-09-06T03:49:45;6.20;;;4.10;;
8626;SDS011;4351;51.422;6.794;2022-09-06T03:52:15;6.80;;;4.03;;
8626;SDS011;4351;51.422;6.794;2022-09-06T03:54:44;4.20;;;3.50;;
8626;SDS011;4351;51.422;6.794;2022-09-06T03:57:12;5.87;;;3.70;;
8626;SDS011;4351;51.422;6.794;2022-09-06T03:59:47;5.43;;;3.60;;
8626;SDS011;4351;51.422;6.794;2022-09-06T04:02:15;5.87;;;3.83;;
8626;SDS011;4351;51.422;6.794;2022-09-06T04:04:43;7.77;;;3.80;;
8626;SDS011;4351;51.422;6.794;2022-09-06T04:07:11;8.57;;;3.80;;
8626;SDS011;4351;51.422;6.794;2022-09-06T04:09:43;7.93;;;4.00;;
8626;SDS011;4351;51.422;6.794;2022-09-06T04:12:11;5.33;;;3.87;;
8626;SDS011;4351;51.422;6.794;2022-09-06T04:14:39;9.03;;;3.77;;
8626;SDS011;4351;51.422;6.794;2022-09-06T04:17:07;7.93;;;3.73;;
8626;SDS011;4351;51.422;6.794;2022-09-06T04:19:35;8.13;;;4.17;;
8626;SDS011;4351;51.422;6.794;2022-09-06T04:25:16;7.37;;;3.90;;
8626;SDS011;4351;51.422;6.794;2022-09-06T04:27:44;5.70;;;3.93;;
8626;SDS011;4351;51.422;6.794;2022-09-06T04:30:14;6.90;;;3.93;;
8626;SDS011;4351;51.422;6.794;2022-09-06T04:32:48;6.07;;;4.03;;
8626;SDS011;4351;51.422;6.794;2022-09-06T04:35:16;6.97;;;3.97;;
8626;SDS011;4351;51.422;6.794;2022-09-06T04:37:49;4.73;;;4.10;;
8626;SDS011;4351;51.422;6.794;2022-09-06T04:40:19;6.87;;;4.40;;
8626;SDS011;4351;51.422;6.794;2022-09-06T04:42:47;9.13;;;4.17;;
8626;SDS011;4351;51.422;6.794;2022-09-06T04:45:16;4.10;;;3.60;;
8626;SDS011;4351;51.422;6.794;2022-09-06T04:47:46;6.70;;;4.10;;
8626;SDS011;4351;51.422;6.794;2022-09-06T04:50:20;5.23;;;3.90;;
8626;SDS011;4351;51.422;6.794;2022-09-06T04:53:03;9.57;;;4.23;;
8626;SDS011;4351;51.422;6.794;2022-09-06T04:55:33;7.30;;;3.90;;
8626;SDS011;4351;51.422;6.794;2022-09-06T04:58:11;5.83;;;3.90;;
8626;SDS011;4351;51.422;6.794;2022-09-06T05:00:48;7.60;;;4.20;;
8626;SDS011;4351;51.422;6.794;2022-09-06T05:03:23;7.47;;;4.00;;
8626;SDS011;4351;51.422;6.794;2022-09-06T05:06:48;6.53;;;4.37;;
8626;SDS011;4351;51.422;6.794;2022-09-06T05:09:16;9.87;;;4.80;;
8626;SDS011;4351;51.422;6.794;2022-09-06T05:15:08;6.27;;;4.57;;
8626;SDS011;4351;51.422;6.794;2022-09-06T05:17:42;7.47;;;4.87;;
8626;SDS011;4351;51.422;6.794;2022-09-06T05:20:50;8.77;;;4.50;;
8626;SDS011;4351;51.422;6.794;2022-09-06T05:26:11;12.10;;;5.03;;
8626;SDS011;4351;51.422;6.794;2022-09-06T05:28:39;12.43;;;5.43;;
8626;SDS011;4351;51.422;6.794;2022-09-06T05:31:09;7.27;;;4.90;;
8626;SDS011;4351;51.422;6.794;2022-09-06T05:33:42;8.30;;;5.10;;
8626;SDS011;4351;51.422;6.794;2022-09-06T05:36:25;10.00;;;5.50;;
8626;SDS011;4351;51.422;6.794;2022-09-06T05:38:54;8.57;;;4.70;;
8626;SDS011;4351;51.422;6.794;2022-09-06T05:41:23;11.23;;;5.57;;
8626;SDS011;4351;51.422;6.794;2022-09-06T05:43:52;8.37;;;5.37;;
8626;SDS011;4351;51.422;6.794;2022-09-06T05:46:21;10.80;;;5.27;;
8626;SDS011;4351;51.422;6.794;2022-09-06T05:48:52;13.80;;;6.30;;
8626;SDS011;4351;51.422;6.794;2022-09-06T05:51:21;8.43;;;5.07;;
8626;SDS011;4351;51.422;6.794;2022-09-06T05:53:49;7.00;;;4.73;;
8626;SDS011;4351;51.422;6.794;2022-09-06T05:56:17;12.70;;;6.23;;
8626;SDS011;4351;51.422;6.794;2022-09-06T05:58:45;10.43;;;5.73;;
8626;SDS011;4351;51.422;6.794;2022-09-06T06:01:14;11.70;;;6.00;;
8626;SDS011;4351;51.422;6.794;2022-09-06T06:03:50;9.53;;;5.90;;
8626;SDS011;4351;51.422;6.794;2022-09-06T06:06:20;11.23;;;5.50;;
8626;SDS011;4351;51.422;6.794;2022-09-06T06:08:48;11.70;;;6.17;;
8626;SDS011;4351;51.422;6.794;2022-09-06T06:11:16;12.13;;;5.53;;
8626;SDS011;4351;51.422;6.794;2022-09-06T06:13:45;9.27;;;6.10;;
8626;SDS011;4351;51.422;6.794;2022-09-06T06:16:14;9.73;;;4.97;;
8626;SDS011;4351;51.422;6.794;2022-09-06T06:18:43;11.10;;;5.73;;
8626;SDS011;4351;51.422;6.794;2022-09-06T06:21:20;10.13;;;5.50;;
8626;SDS011;4351;51.422;6.794;2022-09-06T06:23:50;13.53;;;6.30;;
8626;SDS011;4351;51.422;6.794;2022-09-06T06:26:22;9.53;;;6.30;;
8626;SDS011;4351;51.422;6.794;2022-09-06T06:28:55;8.50;;;5.80;;
8626;SDS011;4351;51.422;6.794;2022-09-06T06:31:27;8.57;;;5.97;;
8626;SDS011;4351;51.422;6.794;2022-09-06T06:33:55;11.57;;;6.23;;
8626;SDS011;4351;51.422;6.794;2022-09-06T06:36:27;8.57;;;5.20;;
8626;SDS011;4351;51.422;6.794;2022-09-06T06:39:03;8.97;;;5.57;;
8626;SDS011;4351;51.422;6.794;2022-09-06T06:42:10;8.97;;;5.73;;
8626;SDS011;4351;51.422;6.794;2022-09-06T06:44:59;12.43;;;6.23;;
8626;SDS011;4351;51.422;6.794;2022-09-06T06:47:35;9.50;;;5.07;;
8626;SDS011;4351;51.422;6.794;2022-09-06T06:50:11;11.77;;;6.20;;
8626;SDS011;4351;51.422;6.794;2022-09-06T06:52:42;9.47;;;4.97;;
8626;SDS011;4351;51.422;6.794;2022-09-06T06:55:12;9.13;;;5.50;;
8626;SDS011;4351;51.422;6.794;2022-09-06T06:57:41;13.73;;;5.63;;
8626;SDS011;4351;51.422;6.794;2022-09-06T07:00:15;13.30;;;6.00;;
8626;SDS011;4351;51.422;6.794;2022-09-06T07:02:46;6.80;;;5.00;;
8626;SDS011;4351;51.422;6.794;2022-09-06T07:05:17;9.87;;;4.97;;
8626;SDS011;4351;51.422;6.794;2022-09-06T07:08:15;9.37;;;4.80;;
8626;SDS011;4351;51.422;6.794;2022-09-06T07:10:53;7.53;;;5.30;;
8626;SDS011;4351;51.422;6.794;2022-09-06T07:13:22;10.27;;;5.53;;
8626;SDS011;4351;51.422;6.794;2022-09-06T07:16:05;10.90;;;4.90;;
8626;SDS011;4351;51.422;6.794;2022-09-06T07:18:41;6.87;;;4.87;;
8626;SDS011;4351;51.422;6.794;2022-09-06T07:21:12;8.30;;;4.27;;
8626;SDS011;4351;51.422;6.794;2022-09-06T07:24:07;9.17;;;5.23;;
8626;SDS011;4351;51.422;6.794;2022-09-06T07:26:37;9.23;;;4.63;;
8626;SDS011;4351;51.422;6.794;2022-09-06T07:29:07;7.20;;;4.53;;
8626;SDS011;4351;51.422;6.794;2022-09-06T07:31:37;6.90;;;4.60;;
8626;SDS011;4351;51.422;6.794;2022-09-06T07:34:28;6.43;;;4.30;;
8626;SDS011;4351;51.422;6.794;2022-09-06T07:37:04;6.70;;;4.57;;
8626;SDS011;4351;51.422;6.794;2022-09-06T07:39:37;12.53;;;4.80;;
8626;SDS011;4351;51.422;6.794;2022-09-06T07:42:17;6.33;;;4.10;;
8626;SDS011;4351;51.422;6.794;2022-09-06T07:44:46;9.77;;;4.03;;
8626;SDS011;4351;51.422;6.794;2022-09-06T07:47:24;7.63;;;3.93;;
8626;SDS011;4351;51.422;6.794;2022-09-06T07:50:15;6.93;;;3.73;;
8626;SDS011;4351;51.422;6.794;2022-09-06T07:53:04;14.30;;;3.53;;
8626;SDS011;4351;51.422;6.794;2022-09-06T07:55:44;7.77;;;3.80;;
8626;SDS011;4351;51.422;6.794;2022-09-06T07:58:13;9.73;;;3.50;;
8626;SDS011;4351;51.422;6.794;2022-09-06T08:00:53;5.27;;;3.10;;
8626;SDS011;4351;51.422;6.794;2022-09-06T08:03:43;8.57;;;2.87;;
8626;SDS011;4351;51.422;6.794;2022-09-06T08:06:19;10.50;;;3.50;;
8626;SDS011;4351;51.422;6.794;2022-09-06T08:08:55;10.50;;;3.20;;
8626;SDS011;4351;51.422;6.794;2022-09-06T08:11:36;8.80;;;3.20;;
8626;SDS011;4351;51.422;6.794;2022-09-06T08:14:08;5.30;;;3.20;;
8626;SDS011;4351;51.422;6.794;2022-09-06T08:16:37;8.23;;;2.93;;
8626;SDS011;4351;51.422;6.794;2022-09-06T08:19:06;7.37;;;2.80;;
8626;SDS011;4351;51.422;6.794;2022-09-06T08:21:44;5.97;;;2.50;;
8626;SDS011;4351;51.422;6.794;2022-09-06T08:24:14;4.80;;;2.60;;
8626;SDS011;4351;51.422;6.794;2022-09-06T08:26:45;3.13;;;2.70;;
8626;SDS011;4351;51.422;6.794;2022-09-06T08:29:14;2.97;;;2.60;;
8626;SDS011;4351;51.422;6.794;2022-09-06T08:31:47;3.50;;;2.60;;
8626;SDS011;4351;51.422;6.794;2022-09-06T08:34:17;4.60;;;2.47;;
8626;SDS011;4351;51.422;6.794;2022-09-06T08:36:47;2.97;;;2.43;;
8626;SDS011;4351;51.422;6.794;2022-09-06T08:39:18;4.07;;;2.30;;
8626;SDS011;4351;51.422;6.794;2022-09-06T08:41:54;3.83;;;2.20;;
8626;SDS011;4351;51.422;6.794;2022-09-06T08:44:26;3.60;;;2.10;;
8626;SDS011;4351;51.422;6.794;2022-09-06T08:47:21;5.87;;;2.57;;
8626;SDS011;4351;51.422;6.794;2022-09-06T08:49:52;3.43;;;2.10;;
8626;SDS011;4351;51.422;6.794;2022-09-06T08:55:43;3.93;;;2.30;;
8626;SDS011;4351;51.422;6.794;2022-09-06T08:58:27;3.00;;;2.20;;
8626;SDS011;4351;51.422;6.794;2022-09-06T09:01:20;5.13;;;2.30;;
8626;SDS011;4351;51.422;6.794;2022-09-06T09:03:58;6.73;;;2.23;;
8626;SDS011;4351;51.422;6.794;2022-09-06T09:06:36;3.80;;;2.20;;
8626;SDS011;4351;51.422;6.794;2022-09-06T09:09:07;4.70;;;2.40;;
8626;SDS011;4351;51.422;6.794;2022-09-06T09:11:40;5.57;;;2.37;;
8626;SDS011;4351;51.422;6.794;2022-09-06T09:14:17;3.70;;;2.60;;
8626;SDS011;4351;51.422;6.794;2022-09-06T09:16:54;6.63;;;2.60;;
8626;SDS011;4351;51.422;6.794;2022-09-06T09:19:42;4.50;;;2.37;;
8626;SDS011;4351;51.422;6.794;2022-09-06T09:22:11;4.07;;;2.37;;
8626;SDS011;4351;51.422;6.794;2022-09-06T09:24:47;3.20;;;2.20;;
8626;SDS011;4351;51.422;6.794;2022-09-06T09:27:21;3.57;;;1.93;;
8626;SDS011;4351;51.422;6.794;2022-09-06T09:29:57;5.27;;;2.27;;
8626;SDS011;4351;51.422;6.794;2022-09-06T09:32:47;3.47;;;2.37;;
8626;SDS011;4351;51.422;6.794;2022-09-06T09:35:26;4.37;;;2.20;;
8626;SDS011;4351;51.422;6.794;2022-09-06T09:41:32;4.03;;;2.20;;
8626;SDS011;4351;51.422;6.794;2022-09-06T09:44:04;3.60;;;2.37;;
8626;SDS011;4351;51.422;6.794;2022-09-06T09:46:37;6.63;;;2.87;;
8626;SDS011;4351;51.422;6.794;2022-09-06T09:49:09;4.73;;;2.70;;
8626;SDS011;4351;51.422;6.794;2022-09-06T09:51:39;5.50;;;2.50;;
8626;SDS011;4351;51.422;6.794;2022-09-06T09:54:09;6.77;;;2.23;;
8626;SDS011;4351;51.422;6.794;2022-09-06T09:56:40;3.67;;;2.30;;
8626;SDS011;4351;51.422;6.794;2022-09-06T09:59:22;2.80;;;1.87;;
8626;SDS011;4351;51.422;6.794;2022-09-06T10:01:58;7.00;;;1.83;;
8626;SDS011;4351;51.422;6.794;2022-09-06T10:04:29;5.87;;;2.10;;
8626;SDS011;4351;51.422;6.794;2022-09-06T10:07:14;6.37;;;1.70;;
8626;SDS011;4351;51.422;6.794;2022-09-06T10:09:45;2.77;;;1.80;;
8626;SDS011;4351;51.422;6.794;2022-09-06T10:12:16;4.20;;;2.00;;
8626;SDS011;4351;51.422;6.794;2022-09-06T10:14:48;3.87;;;1.80;;
8626;SDS011;4351;51.422;6.794;2022-09-06T10:17:18;4.20;;;1.90;;
8626;SDS011;4351;51.422;6.794;2022-09-06T10:19:51;4.93;;;2.03;;
8626;SDS011;4351;51.422;6.794;2022-09-06T10:22:26;8.67;;;2.40;;
8626;SDS011;4351;51.422;6.794;2022-09-06T10:28:24;5.83;;;2.40;;
8626;SDS011;4351;51.422;6.794;2022-09-06T10:34:28;4.17;;;1.90;;
8626;SDS011;4351;51.422;6.794;2022-09-06T10:37:15;4.50;;;2.17;;
8626;SDS011;4351;51.422;6.794;2022-09-06T10:39:54;6.67;;;2.47;;
8626;SDS011;4351;51.422;6.794;2022-09-06T10:42:28;6.47;;;2.00;;
8626;SDS011;4351;51.422;6.794;2022-09-06T10:45:08;6.13;;;2.30;;
8626;SDS011;4351;51.422;6.794;2022-09-06T10:47:49;4.47;;;2.30;;
8626;SDS011;4351;51.422;6.794;2022-09-06T10:50:26;5.67;;;2.67;;
8626;SDS011;4351;51.422;6.794;2022-09-06T10:53:05;4.80;;;2.50;;
8626;SDS011;4351;51.422;6.794;2022-09-06T10:55:37;6.43;;;2.70;;
8626;SDS011;4351;51.422;6.794;2022-09-06T10:58:11;3.80;;;2.70;;
8626;SDS011;4351;51.422;6.794;2022-09-06T11:00:45;5.47;;;2.60;;
8626;SDS011;4351;51.422;6.794;2022-09-06T11:03:18;7.10;;;3.03;;
8626;SDS011;4351;51.422;6.794;2022-09-06T11:06:15;12.03;;;3.30;;
8626;SDS011;4351;51.422;6.794;2022-09-06T11:08:52;4.63;;;2.67;;
8626;SDS011;4351;51.422;6.794;2022-09-06T11:11:27;7.43;;;2.70;;
8626;SDS011;4351;51.422;6.794;2022-09-06T11:14:02;4.13;;;2.80;;
8626;SDS011;4351;51.422;6.794;2022-09-06T11:16:35;7.23;;;2.57;;
8626;SDS011;4351;51.422;6.794;2022-09-06T11:19:11;6.13;;;2.50;;
8626;SDS011;4351;51.422;6.794;2022-09-06T11:21:59;6.67;;;2.47;;
8626;SDS011;4351;51.422;6.794;2022-09-06T11:24:43;7.03;;;2.47;;
8626;SDS011;4351;51.422;6.794;2022-09-06T11:27:25;5.87;;;2.10;;
8626;SDS011;4351;51.422;6.794;2022-09-06T11:30:02;4.50;;;2.10;;
8626;SDS011;4351;51.422;6.794;2022-09-06T11:32:33;3.67;;;2.00;;
8626;SDS011;4351;51.422;6.794;2022-09-06T11:35:05;3.67;;;1.90;;
8626;SDS011;4351;51.422;6.794;2022-09-06T11:37:41;5.03;;;2.03;;
8626;SDS011;4351;51.422;6.794;2022-09-06T11:40:15;6.53;;;2.07;;
8626;SDS011;4351;51.422;6.794;2022-09-06T11:43:13;3.30;;;2.10;;
8626;SDS011;4351;51.422;6.794;2022-09-06T11:45:45;5.77;;;2.10;;
8626;SDS011;4351;51.422;6.794;2022-09-06T11:48:32;3.60;;;1.83;;
8626;SDS011;4351;51.422;6.794;2022-09-06T11:51:30;4.93;;;2.23;;
8626;SDS011;4351;51.422;6.794;2022-09-06T11:54:16;6.70;;;2.60;;
8626;SDS011;4351;51.422;6.794;2022-09-06T11:56:51;6.37;;;2.20;;
8626;SDS011;4351;51.422;6.794;2022-09-06T11:59:32;5.27;;;2.03;;
8626;SDS011;4351;51.422;6.794;2022-09-06T12:02:05;5.20;;;1.97;;
8626;SDS011;4351;51.422;6.794;2022-09-06T12:05:11;4.87;;;2.00;;
8626;SDS011;4351;51.422;6.794;2022-09-06T12:10:54;3.13;;;1.97;;
8626;SDS011;4351;51.422;6.794;2022-09-06T12:13:40;3.23;;;1.90;;
8626;SDS011;4351;51.422;6.794;2022-09-06T12:23:42;6.17;;;2.33;;
8626;SDS011;4351;51.422;6.794;2022-09-06T12:31:49;5.47;;;2.80;;
8626;SDS011;4351;51.422;6.794;2022-09-06T13:16:48;7.73;;;2.20;;
8626;SDS011;4351;51.422;6.794;2022-09-06T13:23:38;4.03;;;2.00;;
8626;SDS011;4351;51.422;6.794;2022-09-06T13:39:31;6.23;;;2.10;;
8626;SDS011;4351;51.422;6.794;2022-09-06T13:42:01;12.20;;;2.80;;
8626;SDS011;4351;51.422;6.794;2022-09-06T13:44:35;5.77;;;2.20;;
8626;SDS011;4351;51.422;6.794;2022-09-06T13:47:04;5.07;;;1.80;;
8626;SDS011;4351;51.422;6.794;2022-09-06T13:49:33;5.60;;;2.00;;
8626;SDS011;4351;51.422;6.794;2022-09-06T14:04:52;5.80;;;1.60;;
8626;SDS011;4351;51.422;6.794;2022-09-06T14:12:07;4.90;;;1.60;;
8626;SDS011;4351;51.422;6.794;2022-09-06T14:35:37;5.90;;;1.90;;
8626;SDS011;4351;51.422;6.794;2022-09-06T14:38:06;4.40;;;1.87;;
8626;SDS011;4351;51.422;6.794;2022-09-06T14:40:34;4.27;;;1.87;;
8626;SDS011;4351;51.422;6.794;2022-09-06T14:43:04;3.70;;;2.10;;
8626;SDS011;4351;51.422;6.794;2022-09-06T14:45:32;3.07;;;2.10;;
8626;SDS011;4351;51.422;6.794;2022-09-06T14:48:01;7.03;;;2.27;;
8626;SDS011;4351;51.422;6.794;2022-09-06T14:50:31;3.23;;;1.73;;
8626;SDS011;4351;51.422;6.794;2022-09-06T14:53:01;3.20;;;1.80;;
8626;SDS011;4351;51.422;6.794;2022-09-06T14:55:44;6.77;;;1.80;;
8626;SDS011;4351;51.422;6.794;2022-09-06T14:58:12;2.70;;;1.80;;
8626;SDS011;4351;51.422;6.794;2022-09-06T15:00:41;3.67;;;1.37;;
8626;SDS011;4351;51.422;6.794;2022-09-06T15:03:10;3.60;;;1.40;;
8626;SDS011;4351;51.422;6.794;2022-09-06T15:05:38;3.30;;;1.40;;
8626;SDS011;4351;51.422;6.794;2022-09-06T15:08:07;2.60;;;1.30;;
8626;SDS011;4351;51.422;6.794;2022-09-06T15:10:36;3.77;;;1.23;;
8626;SDS011;4351;51.422;6.794;2022-09-06T15:13:04;2.40;;;1.17;;
8626;SDS011;4351;51.422;6.794;2022-09-06T15:15:32;3.53;;;1.40;;
8626;SDS011;4351;51.422;6.794;2022-09-06T15:18:00;2.40;;;1.00;;
8626;SDS011;4351;51.422;6.794;2022-09-06T15:20:28;2.13;;;1.10;;
8626;SDS011;4351;51.422;6.794;2022-09-06T15:22:57;2.67;;;1.13;;
8626;SDS011;4351;51.422;6.794;2022-09-06T15:25:47;1.77;;;1.17;;
8626;SDS011;4351;51.422;6.794;2022-09-06T15:28:17;3.87;;;1.50;;
8626;SDS011;4351;51.422;6.794;2022-09-06T15:30:46;1.80;;;1.13;;
8626;SDS011;4351;51.422;6.794;2022-09-06T15:33:15;4.70;;;1.30;;
8626;SDS011;4351;51.422;6.794;2022-09-06T15:35:48;3.50;;;1.60;;
8626;SDS011;4351;51.422;6.794;2022-09-06T15:38:20;3.63;;;1.43;;
8626;SDS011;4351;51.422;6.794;2022-09-06T15:40:49;3.40;;;1.33;;
8626;SDS011;4351;51.422;6.794;2022-09-06T15:43:18;1.87;;;1.50;;
8626;SDS011;4351;51.422;6.794;2022-09-06T15:45:46;3.93;;;1.57;;
8626;SDS011;4351;51.422;6.794;2022-09-06T15:48:16;3.13;;;1.40;;
8626;SDS011;4351;51.422;6.794;2022-09-06T15:50:44;6.13;;;1.53;;
8626;SDS011;4351;51.422;6.794;2022-09-06T15:53:17;2.90;;;1.53;;
8626;SDS011;4351;51.422;6.794;2022-09-06T15:55:45;2.30;;;1.50;;
8626;SDS011;4351;51.422;6.794;2022-09-06T15:58:24;2.90;;;1.70;;
8626;SDS011;4351;51.422;6.794;2022-09-06T16:01:00;5.73;;;1.77;;
8626;SDS011;4351;51.422;6.794;2022-09-06T16:03:29;7.07;;;2.00;;
8626;SDS011;4351;51.422;6.794;2022-09-06T16:06:02;8.13;;;2.10;;
8626;SDS011;4351;51.422;6.794;2022-09-06T16:08:55;4.07;;;1.63;;
8626;SDS011;4351;51.422;6.794;2022-09-06T16:11:25;1.83;;;1.50;;
8626;SDS011;4351;51.422;6.794;2022-09-06T16:13:55;3.97;;;1.47;;
8626;SDS011;4351;51.422;6.794;2022-09-06T16:16:23;5.03;;;1.77;;
8626;SDS011;4351;51.422;6.794;2022-09-06T16:18:52;3.20;;;1.60;;
8626;SDS011;4351;51.422;6.794;2022-09-06T16:21:20;3.17;;;1.80;;
8626;SDS011;4351;51.422;6.794;2022-09-06T16:23:51;2.07;;;1.70;;
8626;SDS011;4351;51.422;6.794;2022-09-06T16:26:20;8.07;;;2.20;;
8626;SDS011;4351;51.422;6.794;2022-09-06T16:28:50;6.97;;;2.00;;
8626;SDS011;4351;51.422;6.794;2022-09-06T16:31:20;5.90;;;1.97;;
8626;SDS011;4351;51.422;6.794;2022-09-06T16:33:49;6.73;;;1.97;;
8626;SDS011;4351;51.422;6.794;2022-09-06T16:36:19;5.83;;;1.93;;
8626;SDS011;4351;51.422;6.794;2022-09-06T16:38:48;3.57;;;1.80;;
8626;SDS011;4351;51.422;6.794;2022-09-06T16:41:17;6.17;;;1.90;;
8626;SDS011;4351;51.422;6.794;2022-09-06T16:43:47;4.67;;;1.70;;
8626;SDS011;4351;51.422;6.794;2022-09-06T16:46:16;7.73;;;2.00;;
8626;SDS011;4351;51.422;6.794;2022-09-06T16:48:50;4.70;;;1.87;;
8626;SDS011;4351;51.422;6.794;2022-09-06T16:51:22;2.63;;;1.73;;
8626;SDS011;4351;51.422;6.794;2022-09-06T16:53:52;3.27;;;1.50;;
8626;SDS011;4351;51.422;6.794;2022-09-06T16:56:22;2.13;;;1.40;;
8626;SDS011;4351;51.422;6.794;2022-09-06T16:58:53;8.40;;;2.40;;
8626;SDS011;4351;51.422;6.794;2022-09-06T17:01:22;5.97;;;1.90;;
8626;SDS011;4351;51.422;6.794;2022-09-06T17:03:53;4.77;;;1.80;;
8626;SDS011;4351;51.422;6.794;2022-09-06T17:06:22;5.30;;;1.40;;
8626;SDS011;4351;51.422;6.794;2022-09-06T17:08:50;4.60;;;1.60;;
8626;SDS011;4351;51.422;6.794;2022-09-06T17:11:19;6.93;;;1.73;;
8626;SDS011;4351;51.422;6.794;2022-09-06T17:13:48;2.87;;;1.37;;
8626;SDS011;4351;51.422;6.794;2022-09-06T17:16:18;3.57;;;1.70;;
8626;SDS011;4351;51.422;6.794;2022-09-06T17:19:05;4.67;;;1.70;;
8626;SDS011;4351;51.422;6.794;2022-09-06T17:21:34;1.93;;;1.20;;
8626;SDS011;4351;51.422;6.794;2022-09-06T17:24:04;2.83;;;1.60;;
8626;SDS011;4351;51.422;6.794;2022-09-06T17:26:34;2.83;;;1.50;;
8626;SDS011;4351;51.422;6.794;2022-09-06T17:29:04;4.87;;;1.60;;
8626;SDS011;4351;51.422;6.794;2022-09-06T17:31:34;3.30;;;1.80;;
8626;SDS011;4351;51.422;6.794;2022-09-06T17:34:02;7.70;;;2.10;;
8626;SDS011;4351;51.422;6.794;2022-09-06T17:36:33;5.67;;;1.90;;
8626;SDS011;4351;51.422;6.794;2022-09-06T17:39:03;7.53;;;2.50;;
8626;SDS011;4351;51.422;6.794;2022-09-06T17:41:34;3.63;;;1.93;;
8626;SDS011;4351;51.422;6.794;2022-09-06T17:44:15;5.23;;;2.10;;
8626;SDS011;4351;51.422;6.794;2022-09-06T17:46:47;5.77;;;1.80;;
8626;SDS011;4351;51.422;6.794;2022-09-06T17:53:33;3.97;;;1.93;;
8626;SDS011;4351;51.422;6.794;2022-09-06T17:56:02;3.10;;;1.73;;
8626;SDS011;4351;51.422;6.794;2022-09-06T17:58:31;4.73;;;1.77;;
8626;SDS011;4351;51.422;6.794;2022-09-06T18:01:00;3.07;;;1.77;;
8626;SDS011;4351;51.422;6.794;2022-09-06T18:03:30;4.37;;;1.77;;
8626;SDS011;4351;51.422;6.794;2022-09-06T18:06:02;3.33;;;2.07;;
8626;SDS011;4351;51.422;6.794;2022-09-06T18:08:34;3.70;;;2.30;;
8626;SDS011;4351;51.422;6.794;2022-09-06T18:11:07;6.40;;;2.37;;
8626;SDS011;4351;51.422;6.794;2022-09-06T18:13:36;4.73;;;2.37;;
8626;SDS011;4351;51.422;6.794;2022-09-06T18:16:05;3.40;;;1.93;;
8626;SDS011;4351;51.422;6.794;2022-09-06T18:18:33;4.57;;;1.83;;
8626;SDS011;4351;51.422;6.794;2022-09-06T18:21:14;3.77;;;2.00;;
8626;SDS011;4351;51.422;6.794;2022-09-06T18:23:58;3.37;;;2.00;;
8626;SDS011;4351;51.422;6.794;2022-09-06T18:26:27;5.00;;;2.77;;
8626;SDS011;4351;51.422;6.794;2022-09-06T18:28:55;5.30;;;2.33;;
8626;SDS011;4351;51.422;6.794;2022-09-06T18:31:24;3.63;;;2.00;;
8626;SDS011;4351;51.422;6.794;2022-09-06T18:33:54;4.30;;;2.00;;